createdAt,value
2023-03-03T00:02:38.826Z,7.54
2023-03-03T00:07:37.602Z,7.54
2023-03-03T00:12:48.503Z,7.54
2023-03-03T00:17:48.971Z,7.52
2023-03-03T00:22:47.938Z,7.50
2023-03-03T00:27:46.701Z,7.52
2023-03-03T00:32:50.438Z,7.51
2023-03-03T00:37:56.982Z,7.58
2023-03-03T00:42:58.528Z,7.55
2023-03-03T00:47:59.525Z,7.54
2023-03-03T00:53:03.816Z,7.58
2023-03-03T00:58:02.936Z,7.61
2023-03-03T01:03:09.294Z,7.64
2023-03-03T01:08:08.208Z,7.56
2023-03-03T01:13:07.940Z,7.55
2023-03-03T01:18:08.783Z,7.60
2023-03-03T01:23:08.098Z,7.62
2023-03-03T01:28:07.187Z,7.65
2023-03-03T01:33:07.541Z,7.65
2023-03-03T01:38:06.387Z,7.65
2023-03-03T01:43:05.423Z,7.63
2023-03-03T01:48:11.753Z,7.61
2023-03-03T01:53:17.218Z,7.63
2023-03-03T01:58:21.082Z,7.61
2023-03-03T02:03:23.688Z,7.60
2023-03-03T02:08:29.202Z,7.62
2023-03-03T02:13:28.063Z,7.48
2023-03-03T02:18:28.974Z,7.50
2023-03-03T02:23:35.717Z,7.53
2023-03-03T02:28:37.797Z,7.52
2023-03-03T02:33:39.367Z,7.52
2023-03-03T02:38:45.669Z,7.56
2023-03-03T02:43:52.143Z,7.55
2023-03-03T02:48:51.233Z,7.54
2023-03-03T02:53:51.037Z,7.51
2023-03-03T02:58:51.628Z,7.29
2023-03-03T03:03:51.092Z,7.24
2023-03-03T03:08:53.128Z,7.31
2023-03-03T03:13:54.573Z,7.21
2023-03-03T03:24:09.542Z,6.92
2023-03-03T03:29:12.455Z,7.01
2023-03-03T03:34:11.532Z,7.04
2023-03-03T03:39:10.769Z,7.07
2023-03-03T03:44:15.372Z,7.07
2023-03-03T03:49:14.791Z,7.20
2023-03-03T03:54:14.195Z,7.28
2023-03-03T03:59:15.581Z,7.32
2023-03-03T04:04:14.900Z,7.35
2023-03-03T04:09:14.727Z,7.36
2023-03-03T04:14:15.764Z,7.39
2023-03-03T04:19:14.976Z,7.39
2023-03-03T04:24:15.196Z,7.43
2023-03-03T04:29:49.991Z,7.48
2023-03-03T04:34:53.144Z,7.42
2023-03-03T04:39:58.306Z,7.41
2023-03-03T04:44:58.863Z,7.44
2023-03-03T04:49:57.906Z,7.48
2023-03-03T04:54:57.252Z,7.51
2023-03-03T04:59:58.107Z,7.50
2023-03-03T05:04:57.649Z,7.56
2023-03-03T05:09:56.470Z,7.52
2023-03-03T05:14:55.351Z,7.48
2023-03-03T05:19:57.360Z,7.38
2023-03-03T05:24:56.163Z,7.43
2023-03-03T05:29:54.914Z,7.45
2023-03-03T05:34:55.067Z,7.52
2023-03-03T05:39:53.889Z,7.60
2023-03-03T05:44:52.758Z,7.66
2023-03-03T05:50:06.701Z,7.69
2023-03-03T05:55:09.166Z,7.77
2023-03-03T06:00:20.025Z,7.85
2023-03-03T06:05:20.399Z,7.93
2023-03-03T06:10:19.332Z,7.93
2023-03-03T06:15:38.962Z,8.01
2023-03-03T06:20:39.819Z,7.89
2023-03-03T06:25:40.515Z,7.95
2023-03-03T06:30:39.330Z,7.95
2023-03-03T06:35:39.638Z,7.98
2023-03-03T06:40:38.501Z,8.02
2023-03-03T06:45:37.322Z,7.90
2023-03-03T06:50:36.167Z,7.96
2023-03-03T06:55:36.339Z,7.99
2023-03-03T07:00:36.548Z,8.07
2023-03-03T07:05:35.504Z,8.12
2023-03-03T07:10:34.362Z,8.21
2023-03-03T07:15:37.131Z,8.28
2023-03-03T07:20:40.118Z,8.13
2023-03-03T07:25:39.429Z,7.92
2023-03-03T07:30:39.953Z,8.21
2023-03-03T07:35:42.047Z,8.32
2023-03-03T07:40:48.839Z,7.93
2023-03-03T07:45:49.358Z,7.91
2023-03-03T07:50:50.042Z,8.09
2023-03-03T07:55:48.844Z,8.23
2023-03-03T08:01:29.532Z,8.39
2023-03-03T08:06:49.531Z,8.24
2023-03-03T08:11:52.904Z,7.96
2023-03-03T08:16:51.400Z,8.42
2023-03-03T08:21:51.492Z,8.49
2023-03-03T08:26:51.082Z,8.38
2023-03-03T08:31:49.851Z,8.39
2023-03-03T08:36:49.666Z,8.66
2023-03-03T08:41:49.827Z,8.83
2023-03-03T08:46:54.996Z,9.01
2023-03-03T08:51:54.750Z,9.05
2023-03-03T08:56:54.951Z,8.91
2023-03-03T09:01:53.827Z,9.32
2023-03-03T09:06:52.590Z,9.88
2023-03-03T09:11:51.495Z,9.92
2023-03-03T09:16:53.374Z,10.21
2023-03-03T09:21:55.018Z,10.82
2023-03-03T09:26:56.183Z,11.40
2023-03-03T09:31:59.096Z,11.64
2023-03-03T09:37:00.252Z,12.13
2023-03-03T09:42:14.078Z,11.66
2023-03-03T09:47:31.168Z,11.53
2023-03-03T09:52:41.140Z,11.13
2023-03-03T09:58:09.970Z,11.35
2023-03-03T10:03:58.281Z,11.30
2023-03-03T10:09:31.905Z,10.83
2023-03-03T10:14:41.116Z,10.88
2023-03-03T10:19:47.946Z,10.58
2023-03-03T10:24:57.868Z,10.78
2023-03-03T10:30:03.973Z,10.87
2023-03-03T10:35:20.630Z,10.88
2023-03-03T10:40:28.394Z,10.85
2023-03-03T10:45:52.092Z,10.83
2023-03-03T10:51:01.562Z,11.06
2023-03-03T10:56:16.557Z,10.78
2023-03-03T11:01:26.905Z,10.95
2023-03-03T11:06:35.176Z,10.79
2023-03-03T11:11:43.607Z,10.68
2023-03-03T11:16:50.769Z,10.74
2023-03-03T11:21:57.567Z,10.44
2023-03-03T11:27:12.478Z,10.86
2023-03-03T11:32:22.989Z,10.95
2023-03-03T11:37:30.179Z,10.62
2023-03-03T11:42:37.072Z,10.77
2023-03-03T11:47:43.590Z,11.08
2023-03-03T11:52:50.141Z,10.82
2023-03-03T11:57:57.294Z,10.77
2023-03-03T12:03:11.520Z,10.61
2023-03-03T12:08:23.362Z,10.91
2023-03-03T12:13:28.154Z,11.27
2023-03-03T12:18:43.354Z,11.21
2023-03-03T12:24:04.510Z,11.26
2023-03-03T12:29:13.805Z,10.42
2023-03-03T12:34:21.038Z,10.64
2023-03-03T12:39:37.972Z,10.71
2023-03-03T12:44:45.992Z,10.39
2023-03-03T12:50:06.587Z,10.62
2023-03-03T12:55:20.877Z,10.39
2023-03-03T13:00:26.783Z,10.61
2023-03-03T13:05:30.255Z,10.52
2023-03-03T13:10:39.044Z,10.07
2023-03-03T13:15:54.856Z,10.13
2023-03-03T13:21:01.561Z,10.15
2023-03-03T13:26:09.266Z,10.10
2023-03-03T13:31:14.235Z,10.13
2023-03-03T13:36:16.191Z,9.72
2023-03-03T13:41:24.935Z,9.61
2023-03-03T13:46:35.319Z,9.66
2023-03-03T13:51:43.584Z,9.95
2023-03-03T13:57:05.398Z,9.84
2023-03-03T14:02:26.201Z,9.76
2023-03-03T14:07:29.735Z,9.82
2023-03-03T14:12:42.125Z,9.74
2023-03-03T14:17:55.078Z,9.63
2023-03-03T14:22:57.650Z,9.55
2023-03-03T14:28:05.943Z,9.81
2023-03-03T14:33:24.072Z,9.80
2023-03-03T14:38:26.006Z,9.46
2023-03-03T14:43:28.112Z,9.65
2023-03-03T14:48:27.773Z,9.40
2023-03-03T14:53:34.446Z,9.13
2023-03-03T14:58:40.559Z,9.18
2023-03-03T15:03:39.388Z,9.41
2023-03-03T15:08:38.288Z,9.02
2023-03-03T15:13:40.005Z,9.30
2023-03-03T15:19:00.555Z,9.20
2023-03-03T15:24:06.839Z,9.16
2023-03-03T15:29:12.649Z,9.09
2023-03-03T15:34:30.956Z,8.86
2023-03-03T15:39:42.874Z,8.80
2023-03-03T15:44:57.400Z,8.62
2023-03-03T15:50:07.429Z,8.48
2023-03-03T15:55:27.497Z,8.46
2023-03-03T16:00:38.880Z,8.48
2023-03-03T16:05:47.665Z,8.47
2023-03-03T16:10:58.364Z,8.44
2023-03-03T16:16:12.468Z,8.41
2023-03-03T16:21:30.865Z,8.32
2023-03-03T16:26:40.190Z,8.06
2023-03-03T16:31:49.068Z,8.33
2023-03-03T16:37:01.637Z,8.28
2023-03-03T16:42:07.118Z,8.35
2023-03-03T16:47:20.399Z,8.47
2023-03-03T16:52:26.784Z,8.45
2023-03-03T16:57:33.703Z,8.40
2023-03-03T17:03:08.254Z,8.28
2023-03-03T17:08:39.223Z,8.35
2023-03-03T17:14:08.830Z,8.42
2023-03-03T17:19:18.970Z,8.42
2023-03-03T17:24:25.449Z,8.39
2023-03-03T17:29:48.712Z,8.32
2023-03-03T17:35:06.661Z,8.21
2023-03-03T17:40:19.605Z,8.30
2023-03-03T17:45:21.592Z,8.30
2023-03-03T17:50:43.281Z,8.09
2023-03-03T17:56:04.735Z,8.13
2023-03-03T18:01:16.560Z,8.13
2023-03-03T18:06:55.914Z,7.73
2023-03-03T18:12:13.173Z,7.98
2023-03-03T18:17:50.269Z,7.98
2023-03-03T18:22:53.932Z,7.85
2023-03-03T18:28:21.368Z,7.85
2023-03-03T18:33:37.865Z,7.95
2023-03-03T18:38:41.777Z,8.03
2023-03-03T18:43:58.234Z,7.76
2023-03-03T18:49:03.473Z,7.64
2023-03-03T18:54:07.609Z,7.50
2023-03-03T18:59:10.179Z,7.56
2023-03-03T19:04:25.473Z,7.40
2023-03-03T19:09:52.591Z,7.60
2023-03-03T19:14:51.439Z,7.66
2023-03-03T19:20:07.070Z,7.61
2023-03-03T19:25:18.841Z,7.44
2023-03-03T19:30:37.552Z,7.35
2023-03-03T19:35:54.707Z,6.92
2023-03-03T19:41:01.032Z,7.26
2023-03-03T19:46:17.016Z,7.04
2023-03-03T19:51:26.946Z,7.13
2023-03-03T19:56:38.146Z,7.05
2023-03-03T20:01:49.552Z,7.23
2023-03-03T20:07:08.522Z,6.87
2023-03-03T20:12:20.847Z,6.98
2023-03-03T20:17:43.959Z,7.03
2023-03-03T20:22:52.520Z,6.88
2023-03-03T20:28:00.243Z,7.03
2023-03-03T20:33:12.552Z,7.04
2023-03-03T20:38:26.822Z,6.89
2023-03-03T20:43:43.086Z,6.81
2023-03-03T20:49:03.164Z,6.83
2023-03-03T20:54:13.381Z,6.97
2023-03-03T20:59:21.839Z,7.06
2023-03-03T21:04:24.075Z,7.03
2023-03-03T21:09:30.646Z,6.94
2023-03-03T21:14:31.622Z,6.88
2023-03-03T21:19:32.563Z,6.91
2023-03-03T21:24:54.482Z,6.94
2023-03-03T21:30:04.697Z,7.15
2023-03-03T21:35:08.663Z,7.12
2023-03-03T21:40:20.798Z,7.32
2023-03-03T21:45:21.385Z,7.30
2023-03-03T21:50:21.566Z,7.27
2023-03-03T21:55:21.768Z,7.28
2023-03-03T22:00:21.660Z,7.37
2023-03-03T22:05:20.464Z,7.16
2023-03-03T22:10:19.323Z,7.17
2023-03-03T22:15:19.616Z,7.24
2023-03-03T22:20:18.675Z,7.23
2023-03-03T22:25:17.679Z,7.29
2023-03-03T22:30:16.980Z,7.38
2023-03-03T22:35:19.660Z,7.31
2023-03-03T22:40:18.924Z,7.40
2023-03-03T22:45:17.853Z,7.35
2023-03-03T22:50:19.464Z,7.46
2023-03-03T22:55:18.339Z,7.55
2023-03-03T23:00:17.652Z,7.51
2023-03-03T23:05:16.338Z,7.58
2023-03-03T23:10:16.592Z,7.61
2023-03-03T23:15:15.958Z,7.64
2023-03-03T23:20:16.558Z,7.72
2023-03-03T23:25:17.149Z,7.75
2023-03-03T23:30:17.979Z,7.77
2023-03-03T23:35:17.315Z,7.72
2023-03-03T23:40:18.608Z,7.75
2023-03-03T23:45:17.728Z,7.78
2023-03-03T23:50:16.731Z,7.82
2023-03-03T23:55:15.528Z,7.82
